createdAt,value
2019-05-23T00:01:02.622Z,15.37
2019-05-23T00:04:34.588Z,15.33
2019-05-23T00:08:01.906Z,19.13
2019-05-23T00:11:33.597Z,17.80
2019-05-23T00:14:50.895Z,17.80
2019-05-23T00:17:59.422Z,18.90
2019-05-23T00:21:08.019Z,24.30
2019-05-23T00:24:15.918Z,24.53
2019-05-23T00:27:25.045Z,42.23
2019-05-23T00:30:49.959Z,19.20
2019-05-23T00:33:59.235Z,15.77
2019-05-23T00:37:07.365Z,22.83
2019-05-23T00:40:16.121Z,21.90
2019-05-23T00:43:24.850Z,24.03
2019-05-23T00:46:32.546Z,23.90
2019-05-23T00:49:41.726Z,22.90
2019-05-23T00:52:51.111Z,14.43
2019-05-23T00:56:01.666Z,11.20
2019-05-23T00:59:25.653Z,16.20
2019-05-23T01:02:19.900Z,12.40
2019-05-23T01:05:28.508Z,17.60
2019-05-23T01:08:38.426Z,19.00
2019-05-23T01:11:46.669Z,15.50
2019-05-23T01:14:55.687Z,12.77
2019-05-23T01:18:04.298Z,8.80
2019-05-23T01:21:24.041Z,9.47
2019-05-23T01:24:43.437Z,16.53
2019-05-23T01:27:51.637Z,12.43
2019-05-23T01:31:00.730Z,17.03
2019-05-23T01:34:11.856Z,10.53
2019-05-23T01:37:20.156Z,19.63
2019-05-23T01:40:27.865Z,17.13
2019-05-23T01:43:35.916Z,19.57
2019-05-23T01:46:44.128Z,20.57
2019-05-23T01:49:51.584Z,12.93
2019-05-23T01:52:59.659Z,13.03
2019-05-23T01:56:07.244Z,10.67
2019-05-23T01:59:14.874Z,11.77
2019-05-23T02:02:23.268Z,7.53
2019-05-23T02:05:31.306Z,7.50
2019-05-23T02:08:39.656Z,8.80
2019-05-23T02:11:47.709Z,4.77
2019-05-23T02:14:56.058Z,5.67
2019-05-23T02:18:04.868Z,10.43
2019-05-23T02:21:12.776Z,14.73
2019-05-23T02:24:21.300Z,11.33
2019-05-23T02:27:28.946Z,11.90
2019-05-23T02:30:38.753Z,13.33
2019-05-23T02:33:46.333Z,10.30
2019-05-23T02:36:55.448Z,9.87
2019-05-23T02:40:14.064Z,11.93
2019-05-23T02:43:24.065Z,10.70
2019-05-23T02:46:38.431Z,14.23
2019-05-23T02:49:48.826Z,14.33
2019-05-23T02:52:56.675Z,16.27
2019-05-23T02:56:08.289Z,12.17
2019-05-23T02:59:51.529Z,13.77
2019-05-23T03:03:07.087Z,13.90
2019-05-23T03:06:17.798Z,18.40
2019-05-23T03:09:26.679Z,14.13
2019-05-23T03:12:35.770Z,14.87
2019-05-23T03:15:44.204Z,12.03
2019-05-23T03:18:58.177Z,14.20
2019-05-23T03:22:31.921Z,16.83
2019-05-23T03:26:21.024Z,17.13
2019-05-23T03:29:30.399Z,15.67
2019-05-23T03:32:47.035Z,16.90
2019-05-23T03:35:57.087Z,11.37
2019-05-23T03:39:07.045Z,14.03
2019-05-23T03:42:15.491Z,15.17
2019-05-23T03:45:26.796Z,15.07
2019-05-23T03:48:34.830Z,17.40
2019-05-23T03:51:42.976Z,15.47
2019-05-23T03:54:52.700Z,14.53
2019-05-23T03:58:01.599Z,15.47
2019-05-23T04:01:11.483Z,17.37
2019-05-23T04:04:19.429Z,21.77
2019-05-23T04:07:27.006Z,24.63
2019-05-23T04:10:34.842Z,18.80
2019-05-23T04:13:42.936Z,20.60
2019-05-23T04:16:50.685Z,13.47
2019-05-23T04:19:58.365Z,18.47
2019-05-23T04:23:07.624Z,20.47
2019-05-23T04:26:15.539Z,15.23
2019-05-23T04:29:26.063Z,12.90
2019-05-23T04:32:34.204Z,16.83
2019-05-23T04:35:41.756Z,14.93
2019-05-23T04:38:49.555Z,19.17
2019-05-23T04:41:57.109Z,16.03
2019-05-23T04:45:05.270Z,16.67
2019-05-23T04:48:13.104Z,22.83
2019-05-23T04:51:21.598Z,16.20
2019-05-23T04:54:30.051Z,18.90
2019-05-23T04:57:37.855Z,22.47
2019-05-23T05:00:47.232Z,18.90
2019-05-23T05:03:54.985Z,18.87
2019-05-23T05:07:02.670Z,18.57
2019-05-23T05:10:12.216Z,18.23
2019-05-23T05:13:19.684Z,21.67
2019-05-23T05:16:27.483Z,13.97
2019-05-23T05:19:35.084Z,14.70
2019-05-23T05:22:42.540Z,12.20
2019-05-23T05:25:50.034Z,12.07
2019-05-23T05:28:57.475Z,17.07
2019-05-23T05:32:06.823Z,17.83
2019-05-23T05:35:15.467Z,16.10
2019-05-23T05:38:22.986Z,13.23
2019-05-23T05:41:31.185Z,15.40
2019-05-23T05:44:39.381Z,13.63
2019-05-23T05:47:47.276Z,15.93
2019-05-23T05:50:55.520Z,12.37
2019-05-23T05:54:03.238Z,18.17
2019-05-23T05:57:11.639Z,12.77
2019-05-23T06:00:45.662Z,15.83
2019-05-23T06:03:54.010Z,15.70
2019-05-23T06:07:29.100Z,19.40
2019-05-23T06:10:39.421Z,18.10
2019-05-23T06:13:47.101Z,18.53
2019-05-23T06:16:56.317Z,17.53
2019-05-23T06:20:03.772Z,11.67
2019-05-23T06:23:13.528Z,11.00
2019-05-23T06:26:21.281Z,10.97
2019-05-23T06:29:29.616Z,12.10
2019-05-23T06:32:38.069Z,16.90
2019-05-23T06:35:45.868Z,18.60
2019-05-23T06:38:53.497Z,20.20
2019-05-23T06:42:01.372Z,17.27
2019-05-23T06:45:11.939Z,15.93
2019-05-23T06:48:21.509Z,19.87
2019-05-23T06:51:29.361Z,20.80
2019-05-23T06:54:36.851Z,15.43
2019-05-23T06:57:44.412Z,16.37
2019-05-23T07:00:52.281Z,17.57
2019-05-23T07:04:01.082Z,16.23
2019-05-23T07:07:09.947Z,19.37
2019-05-23T07:10:17.944Z,23.10
2019-05-23T07:13:27.820Z,17.53
2019-05-23T07:16:35.569Z,19.47
2019-05-23T07:19:43.065Z,18.70
2019-05-23T07:22:50.599Z,19.47
2019-05-23T07:25:58.023Z,17.70
2019-05-23T07:29:08.062Z,19.87
2019-05-23T07:32:15.656Z,17.60
2019-05-23T07:35:24.032Z,20.50
2019-05-23T07:38:31.563Z,21.50
2019-05-23T07:41:39.932Z,24.73
2019-05-23T07:44:48.967Z,20.73
2019-05-23T07:47:56.521Z,21.80
2019-05-23T07:51:04.024Z,20.53
2019-05-23T07:54:29.136Z,26.13
2019-05-23T07:57:37.558Z,26.03
2019-05-23T08:00:53.160Z,17.90
2019-05-23T08:04:17.948Z,22.17
2019-05-23T08:07:11.606Z,20.53
2019-05-23T08:10:33.182Z,15.40
2019-05-23T08:13:28.842Z,21.13
2019-05-23T08:16:36.476Z,13.77
2019-05-23T08:19:49.815Z,19.07
2019-05-23T08:22:53.628Z,28.50
2019-05-23T08:26:01.426Z,25.27
2019-05-23T08:29:26.462Z,26.10
2019-05-23T08:32:18.028Z,17.83
2019-05-23T08:35:25.717Z,25.00
2019-05-23T08:38:33.744Z,34.23
2019-05-23T08:41:41.264Z,34.10
2019-05-23T08:44:49.031Z,22.13
2019-05-23T08:47:56.444Z,26.97
2019-05-23T08:51:04.528Z,19.90
2019-05-23T08:54:12.083Z,32.63
2019-05-23T08:57:19.944Z,24.77
2019-05-23T09:00:28.898Z,21.03
2019-05-23T09:03:36.718Z,16.87
2019-05-23T09:06:44.692Z,23.77
2019-05-23T09:09:52.115Z,24.37
2019-05-23T09:12:59.852Z,22.67
2019-05-23T09:16:07.854Z,24.77
2019-05-23T09:19:15.707Z,25.47
2019-05-23T09:22:23.560Z,21.97
2019-05-23T09:25:31.303Z,27.27
2019-05-23T09:28:39.248Z,26.73
2019-05-23T09:31:48.207Z,24.13
2019-05-23T09:34:55.952Z,27.90
2019-05-23T09:38:03.377Z,28.47
2019-05-23T09:41:11.273Z,28.43
2019-05-23T09:44:19.025Z,25.13
2019-05-23T09:47:26.938Z,27.27
2019-05-23T09:50:34.848Z,27.20
2019-05-23T09:53:46.981Z,33.60
2019-05-23T09:56:51.810Z,42.73
2019-05-23T09:59:59.339Z,31.03
2019-05-23T10:03:07.399Z,31.50
2019-05-23T10:06:14.849Z,49.97
2019-05-23T10:09:22.312Z,44.20
2019-05-23T10:12:29.773Z,38.90
2019-05-23T10:16:05.214Z,29.30
2019-05-23T10:19:12.849Z,21.20
2019-05-23T10:22:20.427Z,21.77
2019-05-23T10:25:27.842Z,20.03
2019-05-23T10:28:35.324Z,17.90
2019-05-23T10:31:43.824Z,20.83
2019-05-23T10:34:52.902Z,20.70
2019-05-23T10:38:00.442Z,16.80
2019-05-23T10:41:09.293Z,22.93
2019-05-23T10:44:16.938Z,18.63
2019-05-23T10:47:24.757Z,22.10
2019-05-23T10:50:44.116Z,20.33
2019-05-23T10:53:41.330Z,20.03
2019-05-23T10:56:48.880Z,19.87
2019-05-23T10:59:56.517Z,23.53
2019-05-23T11:03:04.111Z,38.33
2019-05-23T11:06:16.655Z,21.50
2019-05-23T11:09:36.705Z,18.37
2019-05-23T11:12:31.851Z,16.33
2019-05-23T11:15:39.309Z,18.80
2019-05-23T11:18:47.219Z,19.97
2019-05-23T11:21:54.700Z,21.03
2019-05-23T11:25:02.771Z,25.43
2019-05-23T11:28:10.229Z,23.67
2019-05-23T11:31:18.510Z,31.20
2019-05-23T11:34:26.515Z,32.60
2019-05-23T11:37:34.147Z,25.30
2019-05-23T11:40:42.189Z,30.63
2019-05-23T11:43:50.315Z,21.90
2019-05-23T11:46:57.786Z,23.20
2019-05-23T11:50:07.599Z,20.63
2019-05-23T11:53:15.111Z,25.10
2019-05-23T11:56:22.573Z,24.17
2019-05-23T11:59:30.201Z,23.03
2019-05-23T12:02:42.011Z,22.53
2019-05-23T12:05:49.488Z,18.07
2019-05-23T12:08:56.998Z,18.80
2019-05-23T12:12:04.520Z,18.97
2019-05-23T12:15:18.258Z,24.27
2019-05-23T12:18:25.941Z,24.30
2019-05-23T12:21:33.430Z,28.80
2019-05-23T12:24:40.937Z,23.73
2019-05-23T12:27:48.712Z,25.77
2019-05-23T12:30:56.811Z,28.73
2019-05-23T12:34:04.218Z,19.73
2019-05-23T12:37:19.208Z,16.73
2019-05-23T12:40:21.042Z,16.00
2019-05-23T12:43:28.520Z,14.07
2019-05-23T12:46:35.968Z,15.20
2019-05-23T12:49:48.836Z,17.17
2019-05-23T12:52:56.746Z,17.50
2019-05-23T12:56:04.196Z,15.50
2019-05-23T12:59:12.315Z,15.43
2019-05-23T13:02:23.739Z,21.53
2019-05-23T13:05:32.145Z,18.50
2019-05-23T13:08:40.631Z,19.33
2019-05-23T13:11:48.671Z,14.90
2019-05-23T13:14:58.891Z,18.13
2019-05-23T13:18:05.596Z,14.27
2019-05-23T13:21:13.267Z,19.70
2019-05-23T13:24:21.299Z,20.93
2019-05-23T13:27:29.201Z,21.20
2019-05-23T13:30:36.659Z,19.33
2019-05-23T13:33:44.935Z,14.77
2019-05-23T13:36:52.523Z,14.10
2019-05-23T13:40:00.070Z,16.23
2019-05-23T13:43:09.119Z,18.00
2019-05-23T13:46:16.960Z,18.90
2019-05-23T13:49:24.740Z,16.00
2019-05-23T13:52:32.499Z,19.50
2019-05-23T13:55:40.221Z,19.90
2019-05-23T13:58:47.725Z,17.27
2019-05-23T14:01:56.082Z,20.33
2019-05-23T14:05:04.527Z,20.33
2019-05-23T14:08:13.478Z,20.83
2019-05-23T14:11:21.484Z,21.17
2019-05-23T14:14:29.130Z,27.03
2019-05-23T14:17:44.296Z,30.40
2019-05-23T14:20:52.025Z,25.17
2019-05-23T14:23:59.739Z,31.00
2019-05-23T14:27:17.084Z,34.37
2019-05-23T14:30:42.047Z,43.23
2019-05-23T14:34:14.355Z,31.23
2019-05-23T14:37:27.657Z,32.47
2019-05-23T14:40:35.709Z,32.20
2019-05-23T14:43:45.210Z,44.20
2019-05-23T14:47:11.591Z,37.63
2019-05-23T14:50:46.707Z,37.80
2019-05-23T14:54:12.268Z,40.90
2019-05-23T14:57:19.991Z,43.30
2019-05-23T15:00:28.092Z,46.10
2019-05-23T15:03:36.269Z,43.73
2019-05-23T15:06:43.988Z,53.40
2019-05-23T15:09:51.618Z,57.37
2019-05-23T15:12:59.623Z,59.63
2019-05-23T15:16:07.502Z,50.97
2019-05-23T15:19:25.869Z,42.70
2019-05-23T15:22:24.498Z,40.70
2019-05-23T15:25:32.139Z,36.50
2019-05-23T15:28:39.647Z,42.00
2019-05-23T15:32:01.613Z,37.57
2019-05-23T15:34:57.637Z,46.17
2019-05-23T15:38:05.183Z,41.17
2019-05-23T15:41:13.516Z,42.00
2019-05-23T15:44:27.102Z,42.90
2019-05-23T15:47:33.402Z,46.07
2019-05-23T15:50:46.410Z,40.57
2019-05-23T15:54:19.510Z,41.50
2019-05-23T15:57:51.994Z,48.53
2019-05-23T16:01:09.307Z,53.27
2019-05-23T16:04:19.055Z,39.30
2019-05-23T16:07:27.122Z,42.90
2019-05-23T16:10:35.723Z,44.60
2019-05-23T16:13:43.524Z,48.73
2019-05-23T16:16:55.609Z,46.87
2019-05-23T16:20:00.736Z,44.13
2019-05-23T16:23:08.539Z,47.40
2019-05-23T16:26:16.067Z,43.83
2019-05-23T16:29:23.687Z,44.90
2019-05-23T16:32:31.456Z,46.17
2019-05-23T16:35:38.984Z,45.97
2019-05-23T16:38:46.528Z,62.57
2019-05-23T16:41:55.007Z,54.90
2019-05-23T16:45:02.697Z,53.33
2019-05-23T16:48:10.569Z,59.57
2019-05-23T16:51:18.055Z,58.27
2019-05-23T16:54:30.574Z,76.90
2019-05-23T16:57:44.127Z,95.27
2019-05-23T17:01:23.564Z,87.83
2019-05-23T17:04:35.133Z,74.93
2019-05-23T17:07:51.674Z,81.43
2019-05-23T17:11:04.166Z,88.50
2019-05-23T17:14:20.066Z,81.97
2019-05-23T17:18:00.678Z,91.87
2019-05-23T17:21:13.450Z,103.23
2019-05-23T17:24:53.094Z,94.20
2019-05-23T17:28:22.377Z,103.53
2019-05-23T17:31:34.583Z,85.30
2019-05-23T17:34:42.015Z,80.67
2019-05-23T17:37:49.709Z,79.30
2019-05-23T17:40:57.833Z,99.80
2019-05-23T17:44:07.513Z,97.70
2019-05-23T17:47:15.895Z,126.60
2019-05-23T17:50:24.324Z,114.03
2019-05-23T17:53:32.468Z,113.43
2019-05-23T17:56:41.250Z,112.13
2019-05-23T17:59:49.354Z,103.37
2019-05-23T18:02:58.399Z,77.23
2019-05-23T18:06:07.932Z,87.67
2019-05-23T18:09:16.656Z,86.90
2019-05-23T18:12:24.250Z,68.67
2019-05-23T18:15:32.305Z,75.57
2019-05-23T18:18:40.331Z,73.80
2019-05-23T18:21:48.212Z,70.60
2019-05-23T18:24:59.772Z,70.03
2019-05-23T18:28:06.746Z,63.07
2019-05-23T18:31:22.876Z,66.87
2019-05-23T18:34:32.331Z,58.70
2019-05-23T18:37:40.596Z,66.97
2019-05-23T18:41:02.287Z,54.33
2019-05-23T18:43:59.604Z,54.50
2019-05-23T18:47:12.288Z,51.90
2019-05-23T18:50:38.135Z,58.33
2019-05-23T18:53:46.285Z,55.03
2019-05-23T18:56:54.319Z,52.50
2019-05-23T19:00:20.090Z,50.50
2019-05-23T19:03:27.737Z,57.13
2019-05-23T19:06:35.636Z,54.03
2019-05-23T19:09:45.085Z,55.73
2019-05-23T19:12:55.990Z,53.50
2019-05-23T19:16:05.755Z,55.13
2019-05-23T19:19:14.142Z,46.67
2019-05-23T19:22:21.903Z,44.63
2019-05-23T19:25:29.981Z,41.30
2019-05-23T19:28:38.247Z,40.23
2019-05-23T19:32:05.456Z,40.93
2019-05-23T19:35:31.491Z,43.53
2019-05-23T19:38:39.757Z,44.87
2019-05-23T19:41:48.014Z,52.07
2019-05-23T19:44:56.411Z,48.40
2019-05-23T19:48:04.154Z,45.00
2019-05-23T19:51:47.667Z,47.30
2019-05-23T19:55:12.772Z,49.83
2019-05-23T19:58:26.192Z,49.43
2019-05-23T20:01:51.038Z,56.97
2019-05-23T20:05:02.836Z,44.43
2019-05-23T20:08:10.828Z,45.37
2019-05-23T20:11:18.240Z,51.50
2019-05-23T20:14:27.052Z,44.77
2019-05-23T20:17:34.910Z,37.00
2019-05-23T20:21:00.924Z,41.33
2019-05-23T20:24:08.509Z,143.33
2019-05-23T20:27:52.276Z,39.80
2019-05-23T20:30:59.974Z,41.67
2019-05-23T20:34:07.725Z,40.37
2019-05-23T20:37:16.316Z,70.57
2019-05-23T20:40:23.998Z,87.27
2019-05-23T20:43:31.699Z,66.43
2019-05-23T20:46:57.098Z,46.47
2019-05-23T20:50:22.404Z,41.00
2019-05-23T20:53:48.088Z,38.30
2019-05-23T20:57:13.460Z,43.40
2019-05-23T21:01:10.144Z,41.73
2019-05-23T21:04:17.926Z,43.97
2019-05-23T21:08:00.927Z,40.93
2019-05-23T21:11:08.503Z,42.53
2019-05-23T21:14:16.556Z,43.00
2019-05-23T21:17:25.493Z,43.13
2019-05-23T21:20:33.041Z,44.47
2019-05-23T21:23:40.578Z,49.40
2019-05-23T21:27:23.285Z,37.63
2019-05-23T21:30:30.860Z,40.17
2019-05-23T21:34:14.694Z,39.63
2019-05-23T21:37:22.319Z,40.47
2019-05-23T21:40:43.121Z,34.67
2019-05-23T21:43:52.665Z,36.50
2019-05-23T21:47:17.908Z,42.30
2019-05-23T21:50:25.479Z,41.90
2019-05-23T21:53:32.948Z,42.27
2019-05-23T21:56:40.512Z,39.73
2019-05-23T22:00:08.486Z,39.30
2019-05-23T22:03:35.551Z,36.37
2019-05-23T22:07:02.570Z,34.57
2019-05-23T22:10:28.587Z,33.60
2019-05-23T22:13:36.122Z,39.33
2019-05-23T22:17:20.957Z,37.93
2019-05-23T22:21:03.468Z,37.63
2019-05-23T22:24:29.100Z,37.17
2019-05-23T22:27:37.086Z,44.30
2019-05-23T22:30:44.550Z,41.37
2019-05-23T22:33:58.309Z,37.73
2019-05-23T22:37:11.524Z,41.27
2019-05-23T22:40:38.684Z,41.17
2019-05-23T22:43:46.076Z,42.37
2019-05-23T22:47:11.438Z,37.97
2019-05-23T22:50:19.028Z,47.30
2019-05-23T22:53:26.658Z,53.43
2019-05-23T22:56:34.155Z,45.97
2019-05-23T22:59:59.668Z,41.23
2019-05-23T23:03:07.494Z,39.50
2019-05-23T23:06:15.725Z,45.37
2019-05-23T23:09:41.030Z,45.90
2019-05-23T23:12:49.005Z,34.50
2019-05-23T23:16:14.327Z,41.80
2019-05-23T23:19:21.728Z,48.37
2019-05-23T23:22:29.254Z,39.60
2019-05-23T23:25:37.480Z,35.07
2019-05-23T23:28:44.960Z,40.33
2019-05-23T23:31:52.490Z,42.17
2019-05-23T23:34:59.987Z,43.83
2019-05-23T23:38:25.378Z,40.10
2019-05-23T23:41:32.906Z,40.07
2019-05-23T23:44:57.951Z,47.30
2019-05-23T23:48:23.120Z,37.70
2019-05-23T23:51:48.242Z,35.33
2019-05-23T23:55:13.771Z,34.23
2019-05-23T23:58:20.158Z,34.60
